sensor_id;sensor_type;location;lat;lon;timestamp;P1;durP1;ratioP1;P2;durP2;ratioP2
13807;SDS011;40769;51.512;5.494;2024-03-06T00:02:21;10.23;;;9.43;;
13807;SDS011;40769;51.512;5.494;2024-03-06T00:04:46;9.95;;;9.15;;
13807;SDS011;40769;51.512;5.494;2024-03-06T00:07:12;9.85;;;9.05;;
13807;SDS011;40769;51.512;5.494;2024-03-06T00:12:13;9.00;;;8.20;;
13807;SDS011;40769;51.512;5.494;2024-03-06T00:14:38;9.70;;;8.90;;
13807;SDS011;40769;51.512;5.494;2024-03-06T00:17:04;9.70;;;8.90;;
13807;SDS011;40769;51.512;5.494;2024-03-06T00:22:07;9.38;;;8.68;;
13807;SDS011;40769;51.512;5.494;2024-03-06T00:29:43;7.95;;;7.32;;
13807;SDS011;40769;51.512;5.494;2024-03-06T00:32:09;9.23;;;8.38;;
13807;SDS011;40769;51.512;5.494;2024-03-06T00:34:34;9.27;;;8.48;;
13807;SDS011;40769;51.512;5.494;2024-03-06T00:37:00;8.68;;;7.97;;
13807;SDS011;40769;51.512;5.494;2024-03-06T00:49:47;7.20;;;6.60;;
13807;SDS011;40769;51.512;5.494;2024-03-06T00:52:12;7.07;;;6.47;;
13807;SDS011;40769;51.512;5.494;2024-03-06T01:02:24;6.60;;;6.10;;
13807;SDS011;40769;51.512;5.494;2024-03-06T01:04:50;6.82;;;6.32;;
13807;SDS011;40769;51.512;5.494;2024-03-06T01:12:25;7.05;;;6.45;;
13807;SDS011;40769;51.512;5.494;2024-03-06T01:14:51;7.72;;;7.13;;
13807;SDS011;40769;51.512;5.494;2024-03-06T01:17:17;7.68;;;7.07;;
13807;SDS011;40769;51.512;5.494;2024-03-06T01:19:42;7.53;;;6.90;;
13807;SDS011;40769;51.512;5.494;2024-03-06T01:22:09;7.63;;;7.03;;
13807;SDS011;40769;51.512;5.494;2024-03-06T01:24:35;7.53;;;6.82;;
13807;SDS011;40769;51.512;5.494;2024-03-06T01:27:01;8.30;;;7.60;;
13807;SDS011;40769;51.512;5.494;2024-03-06T01:29:28;8.38;;;7.68;;
13807;SDS011;40769;51.512;5.494;2024-03-06T01:31:54;7.88;;;7.22;;
13807;SDS011;40769;51.512;5.494;2024-03-06T01:34:19;7.82;;;7.13;;
13807;SDS011;40769;51.512;5.494;2024-03-06T01:36:45;7.45;;;6.80;;
13807;SDS011;40769;51.512;5.494;2024-03-06T01:39:11;8.50;;;7.70;;
13807;SDS011;40769;51.512;5.494;2024-03-06T01:41:37;7.40;;;6.80;;
13807;SDS011;40769;51.512;5.494;2024-03-06T01:44:02;8.25;;;7.45;;
13807;SDS011;40769;51.512;5.494;2024-03-06T01:46:29;8.23;;;7.53;;
13807;SDS011;40769;51.512;5.494;2024-03-06T01:48:55;8.32;;;7.63;;
13807;SDS011;40769;51.512;5.494;2024-03-06T01:51:21;8.38;;;7.68;;
13807;SDS011;40769;51.512;5.494;2024-03-06T01:53:46;8.40;;;7.70;;
13807;SDS011;40769;51.512;5.494;2024-03-06T01:56:13;8.98;;;8.18;;
13807;SDS011;40769;51.512;5.494;2024-03-06T01:58:42;8.82;;;8.02;;
13807;SDS011;40769;51.512;5.494;2024-03-06T02:01:10;9.35;;;8.55;;
13807;SDS011;40769;51.512;5.494;2024-03-06T02:03:36;8.70;;;7.90;;
13807;SDS011;40769;51.512;5.494;2024-03-06T02:06:02;9.48;;;8.65;;
13807;SDS011;40769;51.512;5.494;2024-03-06T02:08:29;9.52;;;8.73;;
13807;SDS011;40769;51.512;5.494;2024-03-06T02:10:55;9.30;;;8.50;;
13807;SDS011;40769;51.512;5.494;2024-03-06T02:13:21;10.02;;;9.18;;
13807;SDS011;40769;51.512;5.494;2024-03-06T02:15:47;9.90;;;9.10;;
13807;SDS011;40769;51.512;5.494;2024-03-06T02:18:14;9.30;;;8.50;;
13807;SDS011;40769;51.512;5.494;2024-03-06T02:20:39;10.43;;;9.52;;
13807;SDS011;40769;51.512;5.494;2024-03-06T02:23:05;10.13;;;9.32;;
13807;SDS011;40769;51.512;5.494;2024-03-06T02:25:32;8.55;;;7.85;;
13807;SDS011;40769;51.512;5.494;2024-03-06T02:27:58;9.23;;;8.52;;
13807;SDS011;40769;51.512;5.494;2024-03-06T02:30:26;9.10;;;8.40;;
13807;SDS011;40769;51.512;5.494;2024-03-06T02:32:52;8.32;;;7.63;;
13807;SDS011;40769;51.512;5.494;2024-03-06T02:35:18;8.80;;;8.10;;
13807;SDS011;40769;51.512;5.494;2024-03-06T02:37:44;9.80;;;8.80;;
13807;SDS011;40769;51.512;5.494;2024-03-06T02:40:09;9.63;;;8.73;;
13807;SDS011;40769;51.512;5.494;2024-03-06T02:42:36;8.38;;;7.57;;
13807;SDS011;40769;51.512;5.494;2024-03-06T02:45:05;9.13;;;8.32;;
13807;SDS011;40769;51.512;5.494;2024-03-06T02:47:32;9.00;;;8.30;;
13807;SDS011;40769;51.512;5.494;2024-03-06T02:49:58;9.35;;;8.50;;
13807;SDS011;40769;51.512;5.494;2024-03-06T02:52:24;9.63;;;8.82;;
13807;SDS011;40769;51.512;5.494;2024-03-06T02:54:49;9.68;;;8.68;;
13807;SDS011;40769;51.512;5.494;2024-03-06T02:57:15;10.45;;;9.55;;
13807;SDS011;40769;51.512;5.494;2024-03-06T02:59:40;10.57;;;9.57;;
13807;SDS011;40769;51.512;5.494;2024-03-06T03:02:06;8.45;;;7.75;;
13807;SDS011;40769;51.512;5.494;2024-03-06T03:04:32;8.32;;;7.63;;
13807;SDS011;40769;51.512;5.494;2024-03-06T03:27:38;11.15;;;10.05;;
13807;SDS011;40769;51.512;5.494;2024-03-06T03:30:11;11.43;;;10.43;;
13807;SDS011;40769;51.512;5.494;2024-03-06T03:32:37;10.32;;;9.38;;
13807;SDS011;40769;51.512;5.494;2024-03-06T03:35:06;10.18;;;9.27;;
13807;SDS011;40769;51.512;5.494;2024-03-06T03:37:32;10.95;;;9.73;;
13807;SDS011;40769;51.512;5.494;2024-03-06T03:39:58;12.52;;;9.82;;
13807;SDS011;40769;51.512;5.494;2024-03-06T03:42:24;10.45;;;9.45;;
13807;SDS011;40769;51.512;5.494;2024-03-06T03:44:50;9.98;;;9.15;;
13807;SDS011;40769;51.512;5.494;2024-03-06T03:47:15;10.50;;;9.60;;
13807;SDS011;40769;51.512;5.494;2024-03-06T03:49:41;9.95;;;9.05;;
13807;SDS011;40769;51.512;5.494;2024-03-06T03:52:07;10.32;;;9.43;;
13807;SDS011;40769;51.512;5.494;2024-03-06T03:54:33;10.68;;;9.77;;
13807;SDS011;40769;51.512;5.494;2024-03-06T03:56:59;9.68;;;8.80;;
13807;SDS011;40769;51.512;5.494;2024-03-06T03:59:25;10.00;;;9.10;;
13807;SDS011;40769;51.512;5.494;2024-03-06T04:01:51;8.27;;;7.68;;
13807;SDS011;40769;51.512;5.494;2024-03-06T04:04:16;8.02;;;7.32;;
13807;SDS011;40769;51.512;5.494;2024-03-06T04:06:42;7.93;;;7.32;;
13807;SDS011;40769;51.512;5.494;2024-03-06T04:09:07;7.85;;;7.15;;
13807;SDS011;40769;51.512;5.494;2024-03-06T04:11:36;7.18;;;6.57;;
13807;SDS011;40769;51.512;5.494;2024-03-06T04:14:03;7.53;;;6.93;;
13807;SDS011;40769;51.512;5.494;2024-03-06T04:16:28;7.18;;;6.68;;
13807;SDS011;40769;51.512;5.494;2024-03-06T04:18:56;7.63;;;7.03;;
13807;SDS011;40769;51.512;5.494;2024-03-06T04:21:22;7.07;;;6.57;;
13807;SDS011;40769;51.512;5.494;2024-03-06T04:26:22;7.70;;;7.03;;
13807;SDS011;40769;51.512;5.494;2024-03-06T04:28:47;7.22;;;6.72;;
13807;SDS011;40769;51.512;5.494;2024-03-06T04:31:13;7.00;;;6.50;;
13807;SDS011;40769;51.512;5.494;2024-03-06T04:33:40;7.47;;;6.88;;
13807;SDS011;40769;51.512;5.494;2024-03-06T04:36:10;7.75;;;7.15;;
13807;SDS011;40769;51.512;5.494;2024-03-06T04:38:35;7.97;;;7.38;;
13807;SDS011;40769;51.512;5.494;2024-03-06T04:41:01;8.13;;;7.43;;
13807;SDS011;40769;51.512;5.494;2024-03-06T04:43:26;7.88;;;7.28;;
13807;SDS011;40769;51.512;5.494;2024-03-06T04:45:52;8.50;;;7.80;;
13807;SDS011;40769;51.512;5.494;2024-03-06T04:48:18;7.75;;;7.15;;
13807;SDS011;40769;51.512;5.494;2024-03-06T04:50:43;8.40;;;7.80;;
13807;SDS011;40769;51.512;5.494;2024-03-06T04:53:09;8.88;;;8.20;;
13807;SDS011;40769;51.512;5.494;2024-03-06T04:55:35;8.27;;;7.68;;
13807;SDS011;40769;51.512;5.494;2024-03-06T04:58:02;8.38;;;7.68;;
13807;SDS011;40769;51.512;5.494;2024-03-06T05:00:28;7.55;;;6.95;;
13807;SDS011;40769;51.512;5.494;2024-03-06T05:02:54;6.90;;;6.40;;
13807;SDS011;40769;51.512;5.494;2024-03-06T05:05:20;7.53;;;6.93;;
13807;SDS011;40769;51.512;5.494;2024-03-06T05:07:47;7.22;;;6.53;;
13807;SDS011;40769;51.512;5.494;2024-03-06T05:10:13;7.63;;;7.03;;
13807;SDS011;40769;51.512;5.494;2024-03-06T05:12:40;6.93;;;6.32;;
13807;SDS011;40769;51.512;5.494;2024-03-06T05:15:06;7.38;;;6.80;;
13807;SDS011;40769;51.512;5.494;2024-03-06T05:17:33;7.25;;;6.63;;
13807;SDS011;40769;51.512;5.494;2024-03-06T05:19:59;7.80;;;7.20;;
13807;SDS011;40769;51.512;5.494;2024-03-06T05:22:25;6.97;;;6.47;;
13807;SDS011;40769;51.512;5.494;2024-03-06T05:24:51;6.88;;;6.38;;
13807;SDS011;40769;51.512;5.494;2024-03-06T05:27:17;6.45;;;6.03;;
13807;SDS011;40769;51.512;5.494;2024-03-06T05:29:43;6.78;;;6.28;;
13807;SDS011;40769;51.512;5.494;2024-03-06T05:32:09;6.70;;;6.13;;
13807;SDS011;40769;51.512;5.494;2024-03-06T05:34:35;6.78;;;6.28;;
13807;SDS011;40769;51.512;5.494;2024-03-06T05:37:01;6.90;;;6.40;;
13807;SDS011;40769;51.512;5.494;2024-03-06T05:39:29;6.75;;;6.25;;
13807;SDS011;40769;51.512;5.494;2024-03-06T05:42:02;6.85;;;6.35;;
13807;SDS011;40769;51.512;5.494;2024-03-06T05:44:32;6.38;;;5.88;;
13807;SDS011;40769;51.512;5.494;2024-03-06T05:46:58;6.65;;;6.15;;
13807;SDS011;40769;51.512;5.494;2024-03-06T05:49:25;7.40;;;6.82;;
13807;SDS011;40769;51.512;5.494;2024-03-06T05:51:52;6.30;;;5.70;;
13807;SDS011;40769;51.512;5.494;2024-03-06T05:54:18;7.32;;;5.57;;
13807;SDS011;40769;51.512;5.494;2024-03-06T05:56:44;5.68;;;5.18;;
13807;SDS011;40769;51.512;5.494;2024-03-06T05:59:12;5.60;;;5.20;;
13807;SDS011;40769;51.512;5.494;2024-03-06T06:01:38;5.35;;;4.95;;
13807;SDS011;40769;51.512;5.494;2024-03-06T06:04:03;5.40;;;5.00;;
13807;SDS011;40769;51.512;5.494;2024-03-06T06:06:29;4.47;;;4.18;;
13807;SDS011;40769;51.512;5.494;2024-03-06T06:08:55;3.83;;;3.63;;
13807;SDS011;40769;51.512;5.494;2024-03-06T06:11:20;4.10;;;3.80;;
13807;SDS011;40769;51.512;5.494;2024-03-06T06:13:46;4.07;;;3.83;;
13807;SDS011;40769;51.512;5.494;2024-03-06T06:16:12;4.43;;;4.13;;
13807;SDS011;40769;51.512;5.494;2024-03-06T06:18:39;4.70;;;4.40;;
13807;SDS011;40769;51.512;5.494;2024-03-06T06:21:06;3.63;;;3.42;;
13807;SDS011;40769;51.512;5.494;2024-03-06T06:23:33;3.50;;;3.30;;
13807;SDS011;40769;51.512;5.494;2024-03-06T06:25:59;3.88;;;3.58;;
13807;SDS011;40769;51.512;5.494;2024-03-06T06:28:24;3.30;;;3.10;;
13807;SDS011;40769;51.512;5.494;2024-03-06T06:30:50;4.43;;;4.13;;
13807;SDS011;40769;51.512;5.494;2024-03-06T06:33:19;4.45;;;4.15;;
13807;SDS011;40769;51.512;5.494;2024-03-06T06:35:45;4.63;;;4.32;;
13807;SDS011;40769;51.512;5.494;2024-03-06T06:38:11;4.25;;;3.95;;
13807;SDS011;40769;51.512;5.494;2024-03-06T06:40:37;3.53;;;3.33;;
13807;SDS011;40769;51.512;5.494;2024-03-06T06:43:02;3.83;;;3.58;;
13807;SDS011;40769;51.512;5.494;2024-03-06T06:45:28;4.63;;;4.28;;
13807;SDS011;40769;51.512;5.494;2024-03-06T06:47:54;5.00;;;4.60;;
13807;SDS011;40769;51.512;5.494;2024-03-06T06:50:19;4.40;;;4.10;;
13807;SDS011;40769;51.512;5.494;2024-03-06T06:52:48;4.82;;;4.43;;
13807;SDS011;40769;51.512;5.494;2024-03-06T06:55:13;3.80;;;3.60;;
13807;SDS011;40769;51.512;5.494;2024-03-06T06:57:39;4.00;;;3.70;;
13807;SDS011;40769;51.512;5.494;2024-03-06T07:00:05;4.60;;;4.30;;
13807;SDS011;40769;51.512;5.494;2024-03-06T07:02:41;4.63;;;4.30;;
13807;SDS011;40769;51.512;5.494;2024-03-06T07:05:08;4.70;;;4.40;;
13807;SDS011;40769;51.512;5.494;2024-03-06T07:07:34;4.10;;;3.80;;
13807;SDS011;40769;51.512;5.494;2024-03-06T07:10:01;4.15;;;3.85;;
13807;SDS011;40769;51.512;5.494;2024-03-06T07:12:30;4.05;;;3.75;;
13807;SDS011;40769;51.512;5.494;2024-03-06T07:14:56;3.72;;;3.53;;
13807;SDS011;40769;51.512;5.494;2024-03-06T07:17:22;4.43;;;4.13;;
13807;SDS011;40769;51.512;5.494;2024-03-06T07:19:48;5.00;;;4.70;;
13807;SDS011;40769;51.512;5.494;2024-03-06T07:22:13;4.82;;;4.53;;
13807;SDS011;40769;51.512;5.494;2024-03-06T07:24:39;4.40;;;4.10;;
13807;SDS011;40769;51.512;5.494;2024-03-06T07:27:06;4.80;;;4.40;;
13807;SDS011;40769;51.512;5.494;2024-03-06T07:29:34;5.00;;;4.60;;
13807;SDS011;40769;51.512;5.494;2024-03-06T07:32:00;4.25;;;3.95;;
13807;SDS011;40769;51.512;5.494;2024-03-06T07:34:25;4.32;;;4.03;;
13807;SDS011;40769;51.512;5.494;2024-03-06T07:36:52;4.07;;;3.78;;
13807;SDS011;40769;51.512;5.494;2024-03-06T07:39:21;4.28;;;3.97;;
13807;SDS011;40769;51.512;5.494;2024-03-06T07:41:47;4.00;;;3.70;;
13807;SDS011;40769;51.512;5.494;2024-03-06T07:44:13;4.47;;;4.18;;
13807;SDS011;40769;51.512;5.494;2024-03-06T07:46:38;4.90;;;4.53;;
13807;SDS011;40769;51.512;5.494;2024-03-06T07:49:04;5.28;;;4.88;;
13807;SDS011;40769;51.512;5.494;2024-03-06T07:51:33;5.60;;;5.10;;
13807;SDS011;40769;51.512;5.494;2024-03-06T07:53:59;5.63;;;5.13;;
13807;SDS011;40769;51.512;5.494;2024-03-06T07:56:25;4.40;;;4.05;;
13807;SDS011;40769;51.512;5.494;2024-03-06T07:58:51;4.15;;;3.85;;
13807;SDS011;40769;51.512;5.494;2024-03-06T08:01:18;4.10;;;3.80;;
13807;SDS011;40769;51.512;5.494;2024-03-06T08:03:44;4.22;;;3.90;;
13807;SDS011;40769;51.512;5.494;2024-03-06T08:06:10;4.40;;;4.10;;
13807;SDS011;40769;51.512;5.494;2024-03-06T08:08:36;4.38;;;4.07;;
13807;SDS011;40769;51.512;5.494;2024-03-06T08:11:04;3.92;;;3.63;;
13807;SDS011;40769;51.512;5.494;2024-03-06T08:13:30;4.10;;;3.80;;
13807;SDS011;40769;51.512;5.494;2024-03-06T08:15:56;4.10;;;3.80;;
13807;SDS011;40769;51.512;5.494;2024-03-06T08:18:22;4.25;;;3.95;;
13807;SDS011;40769;51.512;5.494;2024-03-06T08:20:47;4.40;;;4.00;;
13807;SDS011;40769;51.512;5.494;2024-03-06T08:23:13;5.28;;;4.88;;
13807;SDS011;40769;51.512;5.494;2024-03-06T08:25:39;5.60;;;5.10;;
13807;SDS011;40769;51.512;5.494;2024-03-06T08:28:04;5.43;;;4.93;;
13807;SDS011;40769;51.512;5.494;2024-03-06T08:30:30;5.15;;;4.75;;
13807;SDS011;40769;51.512;5.494;2024-03-06T08:32:57;4.70;;;4.40;;
13807;SDS011;40769;51.512;5.494;2024-03-06T08:35:23;4.47;;;4.07;;
13807;SDS011;40769;51.512;5.494;2024-03-06T08:37:49;4.32;;;4.03;;
13807;SDS011;40769;51.512;5.494;2024-03-06T08:40:16;4.40;;;4.10;;
13807;SDS011;40769;51.512;5.494;2024-03-06T08:42:45;3.90;;;3.60;;
13807;SDS011;40769;51.512;5.494;2024-03-06T08:45:14;4.65;;;4.30;;
13807;SDS011;40769;51.512;5.494;2024-03-06T08:47:41;4.63;;;4.22;;
13807;SDS011;40769;51.512;5.494;2024-03-06T08:50:07;4.57;;;4.22;;
13807;SDS011;40769;51.512;5.494;2024-03-06T08:52:34;4.10;;;3.80;;
13807;SDS011;40769;51.512;5.494;2024-03-06T08:55:00;4.55;;;4.15;;
13807;SDS011;40769;51.512;5.494;2024-03-06T08:57:29;4.00;;;3.70;;
13807;SDS011;40769;51.512;5.494;2024-03-06T08:59:56;4.20;;;3.90;;
13807;SDS011;40769;51.512;5.494;2024-03-06T09:02:22;4.30;;;3.90;;
13807;SDS011;40769;51.512;5.494;2024-03-06T09:04:47;4.30;;;3.90;;
13807;SDS011;40769;51.512;5.494;2024-03-06T09:07:13;4.15;;;3.83;;
13807;SDS011;40769;51.512;5.494;2024-03-06T09:09:39;4.18;;;3.88;;
13807;SDS011;40769;51.512;5.494;2024-03-06T09:12:06;4.53;;;4.13;;
13807;SDS011;40769;51.512;5.494;2024-03-06T09:14:35;4.28;;;3.97;;
13807;SDS011;40769;51.512;5.494;2024-03-06T09:17:01;4.03;;;3.67;;
13807;SDS011;40769;51.512;5.494;2024-03-06T09:19:27;4.78;;;4.38;;
13807;SDS011;40769;51.512;5.494;2024-03-06T09:21:53;3.92;;;3.63;;
13807;SDS011;40769;51.512;5.494;2024-03-06T09:24:20;4.10;;;3.80;;
13807;SDS011;40769;51.512;5.494;2024-03-06T09:26:48;3.70;;;3.40;;
13807;SDS011;40769;51.512;5.494;2024-03-06T09:29:14;3.60;;;3.30;;
13807;SDS011;40769;51.512;5.494;2024-03-06T09:31:40;3.65;;;3.35;;
13807;SDS011;40769;51.512;5.494;2024-03-06T09:34:06;3.20;;;3.00;;
13807;SDS011;40769;51.512;5.494;2024-03-06T09:36:32;3.20;;;2.90;;
13807;SDS011;40769;51.512;5.494;2024-03-06T09:38:58;3.42;;;3.13;;
13807;SDS011;40769;51.512;5.494;2024-03-06T09:41:24;3.42;;;3.13;;
13807;SDS011;40769;51.512;5.494;2024-03-06T09:43:50;3.47;;;3.17;;
13807;SDS011;40769;51.512;5.494;2024-03-06T09:46:17;3.63;;;3.33;;
13807;SDS011;40769;51.512;5.494;2024-03-06T09:48:45;3.28;;;2.97;;
13807;SDS011;40769;51.512;5.494;2024-03-06T09:51:12;3.40;;;3.10;;
13807;SDS011;40769;51.512;5.494;2024-03-06T09:53:39;4.00;;;3.45;;
13807;SDS011;40769;51.512;5.494;2024-03-06T09:56:05;3.75;;;3.45;;
13807;SDS011;40769;51.512;5.494;2024-03-06T09:58:31;3.47;;;3.17;;
13807;SDS011;40769;51.512;5.494;2024-03-06T10:01:00;3.22;;;3.03;;
13807;SDS011;40769;51.512;5.494;2024-03-06T10:03:32;3.40;;;3.10;;
13807;SDS011;40769;51.512;5.494;2024-03-06T10:05:58;3.95;;;3.60;;
13807;SDS011;40769;51.512;5.494;2024-03-06T10:08:23;3.67;;;3.38;;
13807;SDS011;40769;51.512;5.494;2024-03-06T10:10:51;3.42;;;3.13;;
13807;SDS011;40769;51.512;5.494;2024-03-06T10:13:17;3.83;;;3.53;;
13807;SDS011;40769;51.512;5.494;2024-03-06T10:15:59;3.33;;;3.13;;
13807;SDS011;40769;51.512;5.494;2024-03-06T10:18:27;5.07;;;4.57;;
13807;SDS011;40769;51.512;5.494;2024-03-06T10:20:54;3.65;;;3.35;;
13807;SDS011;40769;51.512;5.494;2024-03-06T10:23:23;2.90;;;2.70;;
13807;SDS011;40769;51.512;5.494;2024-03-06T10:25:50;3.22;;;2.83;;
13807;SDS011;40769;51.512;5.494;2024-03-06T10:28:17;2.60;;;2.40;;
13807;SDS011;40769;51.512;5.494;2024-03-06T10:30:48;2.53;;;2.33;;
13807;SDS011;40769;51.512;5.494;2024-03-06T10:33:14;2.28;;;2.08;;
13807;SDS011;40769;51.512;5.494;2024-03-06T10:35:44;2.50;;;2.30;;
13807;SDS011;40769;51.512;5.494;2024-03-06T10:38:11;2.35;;;2.17;;
13807;SDS011;40769;51.512;5.494;2024-03-06T10:40:38;2.17;;;1.98;;
13807;SDS011;40769;51.512;5.494;2024-03-06T10:43:05;2.80;;;2.60;;
13807;SDS011;40769;51.512;5.494;2024-03-06T10:45:34;2.85;;;2.65;;
13807;SDS011;40769;51.512;5.494;2024-03-06T10:48:11;2.70;;;2.50;;
13807;SDS011;40769;51.512;5.494;2024-03-06T10:50:39;2.70;;;2.50;;
13807;SDS011;40769;51.512;5.494;2024-03-06T10:53:09;2.25;;;2.05;;
13807;SDS011;40769;51.512;5.494;2024-03-06T10:55:39;2.40;;;2.20;;
13807;SDS011;40769;51.512;5.494;2024-03-06T10:58:05;2.40;;;2.20;;
13807;SDS011;40769;51.512;5.494;2024-03-06T11:00:38;2.88;;;2.60;;
13807;SDS011;40769;51.512;5.494;2024-03-06T11:03:08;2.58;;;2.38;;
13807;SDS011;40769;51.512;5.494;2024-03-06T11:05:40;2.47;;;2.28;;
13807;SDS011;40769;51.512;5.494;2024-03-06T11:08:07;2.50;;;2.30;;
13807;SDS011;40769;51.512;5.494;2024-03-06T11:10:37;2.63;;;2.42;;
13807;SDS011;40769;51.512;5.494;2024-03-06T11:15:52;2.97;;;2.78;;
13807;SDS011;40769;51.512;5.494;2024-03-06T11:18:40;2.85;;;2.65;;
13807;SDS011;40769;51.512;5.494;2024-03-06T11:23:38;2.80;;;2.60;;
13807;SDS011;40769;51.512;5.494;2024-03-06T11:29:16;2.38;;;2.17;;
13807;SDS011;40769;51.512;5.494;2024-03-06T11:34:41;2.60;;;2.30;;
13807;SDS011;40769;51.512;5.494;2024-03-06T11:37:07;2.58;;;2.38;;
13807;SDS011;40769;51.512;5.494;2024-03-06T11:39:37;2.40;;;2.20;;
13807;SDS011;40769;51.512;5.494;2024-03-06T11:42:04;2.30;;;2.10;;
13807;SDS011;40769;51.512;5.494;2024-03-06T11:44:33;2.08;;;1.98;;
13807;SDS011;40769;51.512;5.494;2024-03-06T11:47:00;2.28;;;2.08;;
13807;SDS011;40769;51.512;5.494;2024-03-06T11:49:28;2.13;;;1.92;;
13807;SDS011;40769;51.512;5.494;2024-03-06T11:51:57;2.95;;;2.05;;
13807;SDS011;40769;51.512;5.494;2024-03-06T11:54:25;2.50;;;2.30;;
13807;SDS011;40769;51.512;5.494;2024-03-06T11:56:53;2.50;;;2.30;;
13807;SDS011;40769;51.512;5.494;2024-03-06T11:59:23;2.08;;;1.98;;
13807;SDS011;40769;51.512;5.494;2024-03-06T12:01:50;2.00;;;1.90;;
13807;SDS011;40769;51.512;5.494;2024-03-06T12:04:18;1.73;;;1.63;;
13807;SDS011;40769;51.512;5.494;2024-03-06T12:06:44;1.75;;;1.65;;
13807;SDS011;40769;51.512;5.494;2024-03-06T12:09:10;1.70;;;1.60;;
13807;SDS011;40769;51.512;5.494;2024-03-06T12:11:36;2.28;;;2.08;;
13807;SDS011;40769;51.512;5.494;2024-03-06T12:14:02;2.38;;;2.17;;
13807;SDS011;40769;51.512;5.494;2024-03-06T12:16:28;1.95;;;1.83;;
13807;SDS011;40769;51.512;5.494;2024-03-06T12:18:57;1.95;;;1.85;;
13807;SDS011;40769;51.512;5.494;2024-03-06T12:21:27;2.08;;;1.73;;
13807;SDS011;40769;51.512;5.494;2024-03-06T12:24:02;1.88;;;1.77;;
13807;SDS011;40769;51.512;5.494;2024-03-06T12:26:29;2.00;;;1.80;;
13807;SDS011;40769;51.512;5.494;2024-03-06T12:29:03;1.77;;;1.67;;
13807;SDS011;40769;51.512;5.494;2024-03-06T12:31:33;1.70;;;1.60;;
13807;SDS011;40769;51.512;5.494;2024-03-06T12:34:00;2.13;;;1.92;;
13807;SDS011;40769;51.512;5.494;2024-03-06T12:36:29;1.90;;;1.80;;
13807;SDS011;40769;51.512;5.494;2024-03-06T12:38:56;1.60;;;1.50;;
13807;SDS011;40769;51.512;5.494;2024-03-06T12:41:26;2.28;;;2.00;;
13807;SDS011;40769;51.512;5.494;2024-03-06T12:43:53;1.83;;;1.73;;
13807;SDS011;40769;51.512;5.494;2024-03-06T12:46:19;1.98;;;1.88;;
13807;SDS011;40769;51.512;5.494;2024-03-06T12:48:45;1.80;;;1.70;;
13807;SDS011;40769;51.512;5.494;2024-03-06T12:51:11;1.92;;;1.83;;
13807;SDS011;40769;51.512;5.494;2024-03-06T12:53:37;2.10;;;1.90;;
13807;SDS011;40769;51.512;5.494;2024-03-06T12:56:02;2.10;;;1.90;;
13807;SDS011;40769;51.512;5.494;2024-03-06T12:58:28;2.33;;;2.03;;
13807;SDS011;40769;51.512;5.494;2024-03-06T13:00:56;2.53;;;1.88;;
13807;SDS011;40769;51.512;5.494;2024-03-06T13:03:22;1.60;;;1.50;;
13807;SDS011;40769;51.512;5.494;2024-03-06T13:05:48;1.77;;;1.67;;
13807;SDS011;40769;51.512;5.494;2024-03-06T13:08:14;1.52;;;1.42;;
13807;SDS011;40769;51.512;5.494;2024-03-06T13:10:40;1.50;;;1.38;;
13807;SDS011;40769;51.512;5.494;2024-03-06T13:13:06;1.77;;;1.67;;
13807;SDS011;40769;51.512;5.494;2024-03-06T13:15:32;2.30;;;2.10;;
13807;SDS011;40769;51.512;5.494;2024-03-06T13:18:01;2.40;;;2.25;;
13807;SDS011;40769;51.512;5.494;2024-03-06T13:20:31;2.15;;;2.05;;
13807;SDS011;40769;51.512;5.494;2024-03-06T13:22:58;2.17;;;1.98;;
13807;SDS011;40769;51.512;5.494;2024-03-06T13:25:23;2.33;;;2.17;;
13807;SDS011;40769;51.512;5.494;2024-03-06T13:27:49;2.17;;;2.08;;
13807;SDS011;40769;51.512;5.494;2024-03-06T13:30:19;2.30;;;2.10;;
13807;SDS011;40769;51.512;5.494;2024-03-06T13:32:45;2.20;;;2.00;;
13807;SDS011;40769;51.512;5.494;2024-03-06T13:35:12;1.83;;;1.73;;
13807;SDS011;40769;51.512;5.494;2024-03-06T13:37:41;2.50;;;2.10;;
13807;SDS011;40769;51.512;5.494;2024-03-06T13:40:08;1.92;;;1.73;;
13807;SDS011;40769;51.512;5.494;2024-03-06T13:42:37;3.00;;;2.78;;
13807;SDS011;40769;51.512;5.494;2024-03-06T13:45:03;2.30;;;2.10;;
13807;SDS011;40769;51.512;5.494;2024-03-06T13:47:29;1.95;;;1.83;;
13807;SDS011;40769;51.512;5.494;2024-03-06T13:49:56;2.50;;;2.30;;
13807;SDS011;40769;51.512;5.494;2024-03-06T13:52:21;2.25;;;2.05;;
13807;SDS011;40769;51.512;5.494;2024-03-06T13:54:51;3.10;;;2.22;;
13807;SDS011;40769;51.512;5.494;2024-03-06T13:57:17;2.75;;;2.55;;
13807;SDS011;40769;51.512;5.494;2024-03-06T13:59:42;2.50;;;2.30;;
13807;SDS011;40769;51.512;5.494;2024-03-06T14:02:08;2.53;;;2.28;;
13807;SDS011;40769;51.512;5.494;2024-03-06T14:04:33;3.72;;;2.53;;
13807;SDS011;40769;51.512;5.494;2024-03-06T14:07:00;2.28;;;2.13;;
13807;SDS011;40769;51.512;5.494;2024-03-06T14:09:26;2.50;;;2.30;;
13807;SDS011;40769;51.512;5.494;2024-03-06T14:11:52;3.97;;;2.50;;
13807;SDS011;40769;51.512;5.494;2024-03-06T14:14:18;3.35;;;2.38;;
13807;SDS011;40769;51.512;5.494;2024-03-06T14:16:45;2.88;;;2.67;;
13807;SDS011;40769;51.512;5.494;2024-03-06T14:19:10;2.25;;;2.15;;
13807;SDS011;40769;51.512;5.494;2024-03-06T14:21:37;2.72;;;2.53;;
13807;SDS011;40769;51.512;5.494;2024-03-06T14:24:03;2.28;;;2.17;;
13807;SDS011;40769;51.512;5.494;2024-03-06T14:26:30;2.55;;;2.35;;
13807;SDS011;40769;51.512;5.494;2024-03-06T14:28:57;1.90;;;1.80;;
13807;SDS011;40769;51.512;5.494;2024-03-06T14:31:31;2.30;;;2.08;;
13807;SDS011;40769;51.512;5.494;2024-03-06T14:33:57;1.95;;;1.85;;
13807;SDS011;40769;51.512;5.494;2024-03-06T14:36:22;2.15;;;2.05;;
13807;SDS011;40769;51.512;5.494;2024-03-06T14:38:50;2.30;;;2.10;;
13807;SDS011;40769;51.512;5.494;2024-03-06T14:41:17;2.15;;;2.05;;
13807;SDS011;40769;51.512;5.494;2024-03-06T14:43:46;2.00;;;1.90;;
13807;SDS011;40769;51.512;5.494;2024-03-06T14:46:11;1.92;;;1.83;;
13807;SDS011;40769;51.512;5.494;2024-03-06T14:48:37;2.20;;;2.10;;
13807;SDS011;40769;51.512;5.494;2024-03-06T14:51:03;2.00;;;1.90;;
13807;SDS011;40769;51.512;5.494;2024-03-06T14:53:30;1.95;;;1.85;;
13807;SDS011;40769;51.512;5.494;2024-03-06T14:55:56;1.70;;;1.60;;
13807;SDS011;40769;51.512;5.494;2024-03-06T14:58:22;2.30;;;2.10;;
13807;SDS011;40769;51.512;5.494;2024-03-06T15:00:50;2.10;;;2.00;;
13807;SDS011;40769;51.512;5.494;2024-03-06T15:03:17;2.05;;;1.95;;
13807;SDS011;40769;51.512;5.494;2024-03-06T15:05:43;2.10;;;1.95;;
13807;SDS011;40769;51.512;5.494;2024-03-06T15:08:09;2.53;;;2.33;;
13807;SDS011;40769;51.512;5.494;2024-03-06T15:10:35;2.72;;;2.53;;
13807;SDS011;40769;51.512;5.494;2024-03-06T15:13:01;2.53;;;2.33;;
13807;SDS011;40769;51.512;5.494;2024-03-06T15:15:27;2.30;;;2.20;;
13807;SDS011;40769;51.512;5.494;2024-03-06T15:17:53;2.55;;;2.40;;
13807;SDS011;40769;51.512;5.494;2024-03-06T15:20:18;2.50;;;2.30;;
13807;SDS011;40769;51.512;5.494;2024-03-06T15:22:44;2.50;;;2.30;;
13807;SDS011;40769;51.512;5.494;2024-03-06T15:25:10;2.10;;;2.00;;
13807;SDS011;40769;51.512;5.494;2024-03-06T15:27:37;2.20;;;2.00;;
13807;SDS011;40769;51.512;5.494;2024-03-06T15:30:07;2.30;;;2.10;;
13807;SDS011;40769;51.512;5.494;2024-03-06T15:32:33;2.30;;;2.10;;
13807;SDS011;40769;51.512;5.494;2024-03-06T15:35:00;2.40;;;2.20;;
13807;SDS011;40769;51.512;5.494;2024-03-06T15:37:26;2.17;;;2.00;;
13807;SDS011;40769;51.512;5.494;2024-03-06T15:39:52;2.15;;;1.95;;
13807;SDS011;40769;51.512;5.494;2024-03-06T15:42:18;2.28;;;2.03;;
13807;SDS011;40769;51.512;5.494;2024-03-06T15:44:45;3.05;;;2.85;;
13807;SDS011;40769;51.512;5.494;2024-03-06T15:47:10;3.47;;;3.28;;
13807;SDS011;40769;51.512;5.494;2024-03-06T15:49:36;3.63;;;3.42;;
13807;SDS011;40769;51.512;5.494;2024-03-06T15:52:01;5.57;;;5.18;;
13807;SDS011;40769;51.512;5.494;2024-03-06T15:54:28;5.80;;;5.40;;